Flight Track Log - Related Links

Times and Time Zones

All times are in EDT time to prevent confusion due to time zone crossing. See the A6-EDY flight status page for this flight to view local times or setup timezone preferences in your user account.

Time Position Orientation Groundspeed Altitude Reporting Facility
EDT Latitude Longitude Course Direction KTS km/h feet Rate Location/Type
Sun 03h01:42 25.2670 55.3460 300° West 160 296 700  Level FlightAware ADS-B
Sun 03h02:05 25.2750 55.3310 301° West 160 296 700 1.969 Level FlightAware ADS-B
Sun 03h03:50 25.3250 55.2340 300° West 229 425 4.900 1.985 Climbing FlightAware ADS-B
Sun 03h04:15 25.3280 55.2070 277° West 229 425 5.000 2.727 Climbing FlightAware ADS-B
Sun 03h05:40 25.2840 55.0960 246° West 253 468 9.900 3.231 Climbing FlightAware ADS-B
Sun 03h06:25 25.2610 55.0460 243° Southwest 257 476 12.000 2.467 Climbing FlightAware ADS-B
Sun 03h07:10 25.2390 54.9900 247° West 276 512 13.600 1.976 Climbing FlightAware ADS-B
Sun 03h07:50 25.2250 54.9330 255° West 298 552 14.800 1.976 Climbing FlightAware ADS-B
Sun 03h08:35 25.2070 54.8650 254° West 310 575 16.400 1.976 Climbing FlightAware ADS-B
Sun 03h09:15 25.1930 54.8020 256° West 328 607 17.600 1.624 Climbing FlightAware ADS-B
Sun 03h10:00 25.1780 54.7290 257° West 350 649 18.700 1.341 Climbing FlightAware ADS-B
Sun 03h10:40 25.1640 54.6550 258° West 376 697 19.500 1.950 Climbing FlightAware ADS-B
Sun 03h11:20 25.1510 54.5800 259° West 368 681 21.300 1.765 Climbing FlightAware ADS-B
Sun 03h12:05 25.1560 54.4940 274° West 390 723 22.000 1.271 Climbing FlightAware ADS-B
Sun 03h12:45 25.1900 54.4190 297° West 397 735 23.100 2.325 Climbing FlightAware ADS-B
Sun 03h13:25 25.2200 54.3480 295° West 384 711 25.100 1.906 Climbing FlightAware ADS-B
Sun 03h14:10 25.2550 54.2670 296° West 400 740 25.800 960 Climbing FlightAware ADS-B
Sun 03h14:40 25.2790 54.2140 297° West 414 766 26.300 1.120 Climbing FlightAware ADS-B
Sun 03h15:25 25.3150 54.1300 295° West 419 776 27.200 1.453 Climbing FlightAware ADS-B
Sun 03h16:15 25.3600 54.0250 295° West 425 787 28.600 1.600 Climbing FlightAware ADS-B
Sun 03h17:10 25.4050 53.9200 295° West 424 785 30.000 1.467 Climbing FlightAware ADS-B
Sun 03h17:45 25.4350 53.8490 295° West 424 785 30.800 758 Climbing FlightAware ADS-B
Sun 03h20:00 25.5673 53.6486 306° West  Level Estimated
Sun 03h21:00 25.6261 53.5593 306° West  Level Estimated
Sun 03h22:00 25.6847 53.4700 306° West  Level Estimated
Sun 03h22:45 25.6860 53.2620 306° West 35.500  Level FlightAware ADS-B
Sun 03h25:00 25.8180 53.0609 306° West  Level Estimated
Sun 03h25:05 25.8160 52.9670 306° West 454 840 36.000  Level FlightAware ADS-B
Sun 03h25:50 25.8610 52.8740 298° West 453 838 36.000  Level FlightAware ADS-B
Sun 03h26:45 25.9160 52.7590 298° West 454 840 36.000  Level FlightAware ADS-B
Sun 03h27:25 25.9560 52.6750 298° West 453 838 36.000  Level FlightAware ADS-B
Sun 03h29:25 26.0720 52.4320 298° West 452 837 36.000  Level FlightAware ADS-B
Sun 03h30:15 26.1240 52.3240 298° West 450 834 36.000  Level FlightAware ADS-B
Sun 03h30:55 26.1610 52.2460 298° West 449 832 36.000 71 Level FlightAware ADS-B
Sun 03h31:40 26.2040 52.1550 298° West 446 826 36.100 450 Climbing FlightAware ADS-B
Sun 03h32:15 26.2380 52.0830 298° West 444 822 36.600 900 Climbing FlightAware ADS-B
Sun 03h33:00 26.2830 51.9880 298° West 435 806 37.300 975 Climbing FlightAware ADS-B
Sun 03h33:35 26.3160 51.9180 298° West 427 790 37.900 494 Climbing FlightAware ADS-B
Sun 03h34:25 26.3600 51.8240 298° West 428 793 38.000 67 Climbing FlightAware ADS-B
Sun 03h35:05 26.3940 51.7510 297° West 428 793 38.000  Level FlightAware ADS-B
Sun 03h35:50 26.4410 51.6510 298° West 429 795 38.000  Level FlightAware ADS-B
Sun 03h36:45 26.5000 51.5560 305° West 429 795 38.000  Level FlightAware ADS-B
Sun 03h37:25 26.5480 51.4770 304° West 432 800 38.000  Level FlightAware ADS-B
Sun 03h38:25 26.6140 51.3700 305° West 433 801 38.000  Level FlightAware ADS-B
Sun 03h39:20 26.6670 51.2810 304° West 433 801 38.000  Level FlightAware ADS-B
Sun 03h40:00 26.7050 51.2180 304° West 433 801 38.000  Level FlightAware ADS-B
Sun 03h40:40 26.7430 51.1550 304° West 433 801 38.000  Level FlightAware ADS-B
Sun 03h41:20 26.7810 51.0920 304° West 433 801 38.000  Level FlightAware ADS-B
Sun 03h42:10 26.8290 51.0130 304° West 433 801 38.000  Level FlightAware ADS-B
Sun 03h43:30 26.9530 50.8080 304° West 431 798 38.000  Level FlightAware ADS-B
Sun 03h44:15 26.9960 50.7340 303° West 431 798 38.000  Level FlightAware ADS-B
Sun 03h44:55 27.0330 50.6710 303° West 431 798 38.000  Level FlightAware ADS-B
Sun 03h45:35 27.0700 50.6070 303° West 431 798 38.000  Level FlightAware ADS-B
Sun 03h46:15 27.1070 50.5430 303° West 431 798 38.000  Level FlightAware ADS-B
Sun 03h46:55 27.1430 50.4790 302° West 431 798 38.000  Level FlightAware ADS-B
Sun 03h47:35 27.1800 50.4150 303° West 431 798 38.000  Level FlightAware ADS-B
Sun 03h48:15 27.2170 50.3510 303° West 431 798 38.000  Level FlightAware ADS-B
Sun 03h49:05 27.2630 50.2710 303° West 431 798 38.000  Level FlightAware ADS-B
Sun 03h49:45 27.3000 50.2070 303° West 431 798 38.000  Level FlightAware ADS-B
Sun 03h50:35 27.3470 50.1270 303° West 431 798 38.000  Level FlightAware ADS-B
Sun 03h51:15 27.3830 50.0630 302° West 431 798 38.000  Level FlightAware ADS-B
Sun 03h51:55 27.4200 49.9990 303° West 431 798 38.000  Level FlightAware ADS-B
Sun 03h52:45 27.4670 49.9190 304° West 431 798 38.000  Level FlightAware ADS-B
Sun 03h53:25 27.5040 49.8550 303° West 431 798 38.000  Level FlightAware ADS-B
Sun 03h54:15 27.6850 49.6080 310° West 422 782 38.000  Level FlightAware ADS-B
Sun 03h55:00 27.7400 49.5430 314° West 422 782 38.000  Level FlightAware ADS-B
Sun 03h55:40 27.7850 49.4880 313° West 422 782 38.000  Level FlightAware ADS-B
Sun 03h56:25 27.8780 49.4470 339° North 430 797 38.000  Level FlightAware ADS-B
Sun 03h57:10 27.9530 49.3860 324° Northwest 430 797 38.000  Level FlightAware ADS-B
Sun 03h57:50 28.0160 49.3430 329° Northwest 427 790 38.000  Level FlightAware ADS-B
Sun 03h58:25 28.0820 49.3030 332° Northwest 425 787 38.000  Level FlightAware ADS-B
Sun 03h59:15 28.1650 49.2500 331° Northwest 423 784 38.000  Level FlightAware ADS-B
Sun 03h59:50 28.2250 49.2130 331° Northwest 420 777 38.000  Level FlightAware ADS-B
Sun 04h00:45 28.3150 49.1570 331° Northwest 420 777 38.000  Level FlightAware ADS-B
Sun 04h01:25 28.3850 49.1130 331° Northwest 422 782 38.000  Level FlightAware ADS-B
Sun 04h02:05 28.4570 49.0620 328° Northwest 424 785 38.000  Level FlightAware ADS-B
Sun 04h02:45 28.5220 49.0160 328° Northwest 424 785 38.000  Level FlightAware ADS-B
Sun 04h03:30 28.5870 48.9690 328° Northwest 423 784 38.000  Level FlightAware ADS-B
Sun 04h04:10 28.6510 48.9230 328° Northwest 422 782 38.000  Level FlightAware ADS-B
Sun 04h04:55 28.7310 48.8650 328° Northwest 420 777 38.000  Level FlightAware ADS-B
Sun 04h05:35 28.7970 48.8170 327° Northwest 419 776 38.000  Level FlightAware ADS-B
Sun 04h06:20 28.8760 48.7600 328° Northwest 417 772 38.000  Level FlightAware ADS-B
Sun 04h07:05 28.9450 48.7100 328° Northwest 415 769 38.000  Level FlightAware ADS-B
Sun 04h07:45 29.0060 48.6660 328° Northwest 415 769 38.000  Level FlightAware ADS-B
Sun 04h08:20 29.0690 48.6200 327° Northwest 415 769 38.000  Level FlightAware ADS-B
Sun 04h09:05 29.1350 48.5720 328° Northwest 415 769 38.000  Level FlightAware ADS-B
Sun 04h09:45 29.2010 48.5240 328° Northwest 415 769 38.000  Level FlightAware ADS-B
Sun 04h10:25 29.2720 48.4720 327° Northwest 414 766 38.000  Level FlightAware ADS-B
Sun 04h11:00 29.3230 48.4350 328° Northwest 414 766 38.000  Level FlightAware ADS-B
Sun 04h11:40 29.3870 48.3870 327° Northwest 416 771 38.000  Level FlightAware ADS-B
Sun 04h12:10 29.4340 48.3530 328° Northwest 416 771 38.000  Level FlightAware ADS-B
Sun 04h12:50 29.5030 48.3020 327° Northwest 418 774 38.000  Level FlightAware ADS-B
Sun 04h13:25 29.5440 48.2720 328° Northwest 418 774 38.000  Level FlightAware ADS-B
Sun 04h14:15 29.6380 48.2030 327° Northwest 416 771 38.000  Level FlightAware ADS-B
Sun 04h14:45 29.6830 48.1700 328° Northwest 415 769 38.000  Level FlightAware ADS-B
Sun 04h15:25 29.7420 48.1260 327° Northwest 413 764 38.000  Level FlightAware ADS-B
Sun 04h16:05 29.8050 48.0800 328° Northwest 413 764 38.000  Level FlightAware ADS-B
Sun 04h16:45 29.8730 48.0290 327° Northwest 413 764 38.000  Level FlightAware ADS-B
Sun 04h17:20 29.9270 47.9880 327° Northwest 414 766 38.000  Level FlightAware ADS-B
Sun 04h18:10 30.0070 47.9300 328° Northwest 415 769 38.000  Level FlightAware ADS-B
Sun 04h18:50 30.0740 47.8690 322° Northwest 414 766 38.000  Level FlightAware ADS-B
Sun 04h19:35 30.1380 47.8080 321° Northwest 410 760 38.000  Level FlightAware ADS-B
Sun 04h20:50 30.2310 47.7190 320° Northwest 409 758 38.000  Level FlightAware ADS-B
Sun 04h21:20 30.2850 47.6670 320° Northwest 411 761 38.000  Level FlightAware ADS-B
Sun 04h21:50 30.3200 47.6330 320° Northwest 411 761 38.000  Level FlightAware ADS-B
Sun 04h22:30 30.3830 47.5730 321° Northwest 412 763 38.000  Level FlightAware ADS-B
Sun 04h23:30 30.4570 47.5000 320° Northwest 412 763 38.000  Level FlightAware ADS-B
Sun 04h24:20 30.5190 47.4400 320° Northwest 412 763 38.000  Level FlightAware ADS-B
Sun 04h24:50 30.5570 47.4040 321° Northwest 412 763 38.000  Level FlightAware ADS-B
Sun 04h25:35 30.6540 47.3110 320° Northwest 410 760 38.000  Level FlightAware ADS-B
Sun 04h26:15 30.7040 47.2620 320° Northwest 410 760 38.000  Level FlightAware ADS-B
Sun 04h27:05 30.7650 47.2020 320° Northwest 410 760 38.000  Level FlightAware ADS-B
Sun 04h27:35 30.8030 47.1660 321° Northwest 410 760 38.000  Level FlightAware ADS-B
Sun 04h28:15 30.8520 47.1180 320° Northwest 410 760 38.000  Level FlightAware ADS-B
Sun 04h29:10 30.9680 47.0060 320° Northwest 38.000  Level FlightAware ADS-B
Sun 04h30:50 31.1140 46.8630 301° West 406 752 38.000  Level FlightAware ADS-B
Sun 04h31:00 31.0622 46.8235 301° West  Level Estimated
Sun 04h31:25 31.1610 46.8150 319° Northwest 406 752 38.000  Level FlightAware ADS-B
Sun 04h32:05 31.2090 46.7660 319° Northwest 406 752 38.000  Level FlightAware ADS-B
Sun 04h32:45 31.2570 46.7170 319° Northwest 406 752 38.000  Level FlightAware ADS-B
Sun 04h33:25 31.3050 46.6680 319° Northwest 406 752 38.000  Level FlightAware ADS-B
Sun 04h34:25 31.3780 46.5950 320° Northwest 406 752 38.000  Level FlightAware ADS-B
Sun 04h34:55 31.4140 46.5580 319° Northwest 406 752 38.000  Level FlightAware ADS-B
Sun 04h35:35 31.4620 46.5090 319° Northwest 406 752 38.000  Level FlightAware ADS-B
Sun 04h36:05 31.4980 46.4720 319° Northwest 406 752 38.000  Level FlightAware ADS-B
Sun 04h36:45 31.5460 46.4230 319° Northwest 406 752 38.000  Level FlightAware ADS-B
Sun 04h37:15 31.5820 46.3860 319° Northwest 406 752 38.000  Level FlightAware ADS-B
Sun 04h37:55 31.6310 46.3370 320° Northwest 406 752 38.000  Level FlightAware ADS-B
Sun 04h38:25 31.6670 46.3000 319° Northwest 406 752 38.000  Level FlightAware ADS-B
Sun 04h39:05 31.7150 46.2510 319° Northwest 406 752 38.000  Level FlightAware ADS-B
Sun 04h39:35 31.7510 46.2140 319° Northwest 406 752 38.000  Level FlightAware ADS-B
Sun 04h40:25 31.8110 46.1520 319° Northwest 406 752 38.000  Level FlightAware ADS-B
Sun 04h43:00 31.9395 45.8895 300° West  Level Estimated
Sun 04h44:00 31.9891 45.7876 300° West  Level Estimated
Sun 04h45:00 32.0386 45.6857 300° West  Level Estimated
Sun 04h46:00 32.0881 45.5836 300° West  Level Estimated
Sun 04h47:00 32.1374 45.4815 300° West  Level Estimated
Sun 04h48:00 32.1867 45.3792 300° West  Level Estimated
Sun 04h49:00 32.2359 45.2768 300° West  Level Estimated
Sun 04h50:00 32.2850 45.1743 300° West  Level Estimated
Sun 04h51:00 32.3340 45.0717 300° West  Level Estimated
Sun 04h51:40 32.8990 45.0640 300° West 387 716 38.000  Level FlightAware ADS-B
Sun 04h52:15 32.9470 45.0140 319° Northwest 389 721 38.000  Level FlightAware ADS-B
Sun 04h53:05 33.0180 44.9400 319° Northwest 391 724 38.000  Level FlightAware ADS-B
Sun 04h54:00 33.0910 44.8640 319° Northwest 393 727 38.000  Level FlightAware ADS-B
Sun 04h54:45 33.1560 44.7970 319° Northwest 396 734 38.000  Level FlightAware ADS-B
Sun 04h55:35 33.2320 44.7370 327° Northwest 399 739 38.000  Level FlightAware ADS-B
Sun 04h56:20 33.3090 44.6990 338° Northwest 407 753 38.000  Level FlightAware ADS-B
Sun 04h57:00 33.3800 44.6740 344° North 408 756 38.000  Level FlightAware ADS-B
Sun 04h57:30 33.4380 44.6520 342° North 410 760 38.000  Level FlightAware ADS-B
Sun 04h58:10 33.5070 44.6270 343° North 411 761 38.000  Level FlightAware ADS-B
Sun 04h59:00 33.5990 44.5840 339° North 408 756 38.000  Level FlightAware ADS-B
Sun 05h00:09 33.7150 44.5280 338° Northwest 411 761 38.000  Level FlightAware ADS-B
Sun 05h00:40 33.7710 44.5000 337° Northwest 413 764 38.000  Level FlightAware ADS-B
Sun 05h01:25 33.8530 44.4600 338° Northwest 413 764 38.000  Level FlightAware ADS-B
Sun 05h02:08 33.9270 44.4230 337° Northwest 413 764 38.000  Level FlightAware ADS-B
Sun 05h02:48 33.9960 44.3890 338° Northwest 412 763 38.000  Level FlightAware ADS-B
Sun 05h03:43 34.0950 44.3400 338° Northwest 412 763 38.000  Level FlightAware ADS-B
Sun 05h04:13 34.1480 44.3140 338° Northwest 413 764 38.000  Level FlightAware ADS-B
Sun 05h04:43 34.1990 44.2880 337° Northwest 415 769 38.000  Level FlightAware ADS-B
Sun 05h05:18 34.2660 44.2550 338° Northwest 417 772 38.000  Level FlightAware ADS-B
Sun 05h06:08 34.3530 44.2110 337° Northwest 416 771 38.000  Level FlightAware ADS-B
Sun 05h06:48 34.4280 44.1740 338° Northwest 414 766 38.000  Level FlightAware ADS-B
Sun 05h07:23 34.4880 44.1440 338° Northwest 413 764 38.000  Level FlightAware ADS-B
Sun 05h08:08 34.5660 44.1040 337° Northwest 412 763 38.000  Level FlightAware ADS-B
Sun 05h08:38 34.6210 44.0750 337° Northwest 413 764 38.000  Level FlightAware ADS-B
Sun 05h09:08 34.6730 44.0470 336° Northwest 413 764 38.000  Level FlightAware ADS-B
Sun 05h09:48 34.7440 44.0100 337° Northwest 415 769 38.000  Level FlightAware ADS-B
Sun 05h10:23 34.8040 43.9790 337° Northwest 416 771 38.000  Level FlightAware ADS-B
Sun 05h11:03 34.8750 43.9410 336° Northwest 417 772 38.000  Level FlightAware ADS-B
Sun 05h11:43 34.9460 43.9040 337° Northwest 416 771 38.000  Level FlightAware ADS-B
Sun 05h12:13 34.9990 43.8760 337° Northwest 416 771 38.000  Level FlightAware ADS-B
Sun 05h12:48 35.0600 43.8430 336° Northwest 415 769 38.000  Level FlightAware ADS-B
Sun 05h13:33 35.1410 43.8010 337° Northwest 415 769 38.000  Level FlightAware ADS-B
Sun 05h14:13 35.2110 43.7630 336° Northwest 414 766 38.000  Level FlightAware ADS-B
Sun 05h14:48 35.2710 43.7310 336° Northwest 414 766 38.000  Level FlightAware ADS-B
Sun 05h15:23 35.3350 43.6970 337° Northwest 414 766 38.000  Level FlightAware ADS-B
Sun 05h15:53 35.3880 43.6690 337° Northwest 416 771 38.000  Level FlightAware ADS-B
Sun 05h16:43 35.4740 43.6230 336° Northwest 421 779 38.000  Level FlightAware ADS-B
Sun 05h17:23 35.5480 43.5840 337° Northwest 423 784 38.000  Level FlightAware ADS-B
Sun 05h17:53 35.6030 43.5540 336° Northwest 425 787 38.000  Level FlightAware ADS-B
Sun 05h18:28 35.6640 43.5210 336° Northwest 426 789 38.000  Level FlightAware ADS-B
Sun 05h19:18 35.7550 43.4730 337° Northwest 427 790 38.000  Level FlightAware ADS-B
Sun 05h19:58 35.8270 43.4340 336° Northwest 429 795 38.000  Level FlightAware ADS-B
Sun 05h20:38 35.9010 43.3940 336° Northwest 433 801 38.000  Level FlightAware ADS-B
Sun 05h21:23 35.9850 43.3480 336° Northwest 436 808 38.000  Level FlightAware ADS-B
Sun 05h22:03 36.0560 43.3100 337° Northwest 436 808 38.000  Level FlightAware ADS-B
Sun 05h22:48 36.1400 43.2640 336° Northwest 435 806 38.000  Level FlightAware ADS-B
Sun 05h23:28 36.2150 43.2230 336° Northwest 435 806 38.000  Level FlightAware ADS-B
Sun 05h24:08 36.2890 43.1820 336° Northwest 438 811 38.000  Level FlightAware ADS-B
Sun 05h24:53 36.3700 43.1370 336° Northwest 440 814 38.000  Level FlightAware ADS-B
Sun 05h25:33 36.4470 43.0950 336° Northwest 443 821 38.000  Level FlightAware ADS-B
Sun 05h26:18 36.5300 43.0490 336° Northwest 441 816 38.000  Level FlightAware ADS-B
Sun 05h26:58 36.6050 43.0070 336° Northwest 439 813 38.000  Level FlightAware ADS-B
Sun 05h27:38 36.6790 42.9660 336° Northwest 438 811 38.000  Level FlightAware ADS-B
Sun 05h28:23 36.7640 42.9180 336° Northwest 437 810 38.000  Level FlightAware ADS-B
Sun 05h29:03 36.8350 42.8790 336° Northwest 439 813 38.000  Level FlightAware ADS-B
Sun 05h29:48 36.9190 42.8330 336° Northwest 439 813 38.000  Level FlightAware ADS-B
Sun 05h30:28 36.9950 42.7910 336° Northwest 440 814 38.000  Level FlightAware ADS-B
Sun 05h31:08 37.0690 42.7500 336° Northwest 440 814 38.000  Level FlightAware ADS-B
Sun 05h31:53 37.1530 42.7030 336° Northwest 439 813 38.000  Level FlightAware ADS-B
Sun 05h32:33 37.2250 42.6580 334° Northwest 435 806 38.000  Level FlightAware ADS-B
Sun 05h33:18 37.3000 42.5910 325° Northwest 432 800 38.000  Level FlightAware ADS-B
Sun 05h33:58 37.3590 42.5230 318° Northwest 433 801 38.000  Level FlightAware ADS-B
Sun 05h34:43 37.4240 42.4480 318° Northwest 433 801 38.000  Level FlightAware ADS-B
Sun 05h35:23 37.4820 42.3810 317° Northwest 431 798 38.000  Level FlightAware ADS-B
Sun 05h36:03 37.5400 42.3140 318° Northwest 430 797 38.000  Level FlightAware ADS-B
Sun 05h36:48 37.6060 42.2370 317° Northwest 429 795 38.000  Level FlightAware ADS-B
Sun 05h37:28 37.6620 42.1720 317° Northwest 428 793 38.000  Level FlightAware ADS-B
Sun 05h38:08 37.7250 42.0990 318° Northwest 427 790 38.000  Level FlightAware ADS-B
Sun 05h38:53 37.7810 42.0320 317° Northwest 427 790 38.000  Level FlightAware ADS-B
Sun 05h39:33 37.8460 41.9560 317° Northwest 427 790 38.000  Level FlightAware ADS-B
Sun 05h40:18 37.9000 41.8730 310° West 424 785 38.000  Level FlightAware ADS-B
Sun 05h40:58 37.9390 41.7850 299° West 420 777 38.000  Level FlightAware ADS-B
Sun 05h41:43 37.9720 41.6800 292° West 418 774 38.000  Level FlightAware ADS-B
Sun 05h42:33 38.0050 41.5750 292° West 414 766 38.000  Level FlightAware ADS-B
Sun 05h43:13 38.0280 41.4980 291° West 414 766 38.000  Level FlightAware ADS-B
Sun 05h43:53 38.0520 41.4210 292° West 414 766 38.000  Level FlightAware ADS-B
Sun 05h44:43 38.0960 41.2820 292° West 402 745 38.000  Level FlightAware ADS-B
Sun 05h45:38 38.1290 41.1730 291° West 401 742 38.000  Level FlightAware ADS-B
Sun 05h46:18 38.1520 41.0980 291° West 401 742 38.000  Level FlightAware ADS-B
Sun 05h46:58 38.1750 41.0230 291° West 401 742 38.000  Level FlightAware ADS-B
Sun 05h47:38 38.1970 40.9480 290° West 401 742 38.000  Level FlightAware ADS-B
Sun 05h48:18 38.2200 40.8730 291° West 401 742 38.000  Level FlightAware ADS-B
Sun 05h49:08 38.2480 40.7800 291° West 401 742 38.000  Level FlightAware ADS-B
Sun 05h49:48 38.2710 40.7050 291° West 401 742 38.000  Level FlightAware ADS-B
Sun 05h50:28 38.2930 40.6300 291° West 401 742 38.000  Level FlightAware ADS-B
Sun 05h51:08 38.3160 40.5550 291° West 401 742 38.000  Level FlightAware ADS-B
Sun 05h51:58 38.3440 40.4610 291° West 401 742 38.000  Level FlightAware ADS-B
Sun 05h52:38 38.3670 40.3860 291° West 401 742 38.000  Level FlightAware ADS-B
Sun 05h53:18 38.3890 40.3110 291° West 401 742 38.000  Level FlightAware ADS-B
Sun 05h53:58 38.4120 40.2350 291° West 401 742 38.000  Level FlightAware ADS-B
Sun 05h54:38 38.4340 40.1600 291° West 401 742 38.000  Level FlightAware ADS-B
Sun 05h57:00 38.5061 39.8733 288° West  Level Estimated
Sun 05h58:00 38.5364 39.7520 288° West  Level Estimated
Sun 05h59:00 38.5665 39.6306 288° West  Level Estimated
Sun 06h00:00 38.5965 39.5091 288° West  Level Estimated
Sun 06h01:00 38.6264 39.3874 287° West  Level Estimated
Sun 06h02:00 38.6562 39.2657 287° West  Level Estimated
Sun 06h03:00 38.6858 39.1439 287° West  Level Estimated
Sun 06h04:00 38.7153 39.0220 287° West  Level Estimated
Sun 06h05:00 38.7447 38.9000 287° West  Level Estimated
Sun 06h06:00 38.7739 38.7778 287° West  Level Estimated
Sun 06h07:00 38.8030 38.6556 287° West  Level Estimated
Sun 06h08:00 38.8320 38.5333 287° West  Level Estimated
Sun 06h09:00 38.8609 38.4109 287° West  Level Estimated
Sun 06h10:00 38.8896 38.2884 287° West  Level Estimated
Sun 06h11:00 38.9182 38.1657 287° West  Level Estimated
Sun 06h12:00 38.9473 38.0405 287° West  Level Estimated
Sun 06h13:00 38.9762 37.9151 287° West  Level Estimated
Sun 06h14:00 39.0051 37.7896 286° West  Level Estimated
Sun 06h15:00 39.0337 37.6640 286° West  Level Estimated
Sun 06h16:00 39.0623 37.5383 286° West  Level Estimated
Sun 06h17:00 39.0907 37.4126 286° West  Level Estimated
Sun 06h18:00 39.1189 37.2867 286° West  Level Estimated
Sun 06h19:00 39.1471 37.1607 286° West  Level Estimated
Sun 06h20:00 39.1751 37.0346 286° West  Level Estimated
Sun 06h21:00 39.2029 36.9084 286° West  Level Estimated
Sun 06h22:00 39.2307 36.7821 286° West  Level Estimated
Sun 06h23:00 39.2582 36.6557 286° West  Level Estimated
Sun 06h24:00 39.2857 36.5293 286° West  Level Estimated
Sun 06h25:00 39.3130 36.4027 286° West  Level Estimated
Sun 06h26:00 39.3402 36.2760 286° West  Level Estimated
Sun 06h27:00 39.3672 36.1492 285° West  Level Estimated
Sun 06h28:00 39.3941 36.0223 285° West  Level Estimated
Sun 06h29:00 39.4209 35.8954 285° West  Level Estimated
Sun 06h30:00 39.4475 35.7683 285° West  Level Estimated
Sun 06h31:00 39.4740 35.6411 285° West  Level Estimated
Sun 06h32:00 39.5003 35.5138 285° West  Level Estimated
Sun 06h32:28 40.0480 34.8950 285° West 404 748 38.000  Level FlightAware ADS-B
Sun 06h33:00 39.5266 35.3865 285° West  Level Estimated
Sun 06h33:08 40.0590 34.7940 278° West 405 750 38.000  Level FlightAware ADS-B
Sun 06h34:08 40.0770 34.6490 279° West 404 748 38.000  Level FlightAware ADS-B
Sun 06h35:53 40.1060 34.3950 283° West 409 758 38.000  Level FlightAware ADS-B
Sun 06h36:00 40.1199 34.4073 283° West  Level Estimated
Sun 06h37:28 40.1320 34.1630 278° West 410 760 38.000  Level FlightAware ADS-B
Sun 06h38:13 40.1450 34.0510 279° West 408 756 38.000  Level FlightAware ADS-B
Sun 06h40:00 40.1852 33.8196 283° West  Level Estimated
Sun 06h40:33 40.1810 33.7140 283° West 401 742 38.000  Level FlightAware ADS-B
Sun 06h43:00 40.2355 33.3957 283° West  Level Estimated
Sun 06h43:03 40.2180 33.3500 283° West 406 752 38.000  Level FlightAware ADS-B
Sun 06h44:13 40.2350 33.1790 277° West 405 750 38.000  Level FlightAware ADS-B
Sun 06h45:08 40.2560 33.0490 282° West 417 772 38.000  Level FlightAware ADS-B
Sun 06h45:53 40.2840 32.9430 289° West 419 776 38.000  Level FlightAware ADS-B
Sun 06h46:43 40.3160 32.8200 289° West 416 771 38.000  Level FlightAware ADS-B
Sun 06h47:48 40.3560 32.6640 289° West 411 761 38.000  Level FlightAware ADS-B
Sun 06h49:03 40.4000 32.4930 289° West 416 771 38.000  Level FlightAware ADS-B
Sun 06h51:00 40.4406 32.2380 282° West  Level Estimated
Sun 06h51:03 40.4750 32.1950 282° West 430 797 38.000  Level FlightAware ADS-B
Sun 06h52:38 40.5440 31.9640 292° West 432 800 38.000  Level FlightAware ADS-B
Sun 06h53:13 40.5670 31.8850 291° West 427 790 38.000  Level FlightAware ADS-B
Sun 06h54:33 40.6190 31.6860 289° West 423 784 38.000  Level FlightAware ADS-B
Sun 06h56:13 40.6770 31.4480 288° West 423 784 38.000  Level FlightAware ADS-B
Sun 06h56:53 40.7010 31.3520 288° West 425 787 38.000  Level FlightAware ADS-B
Sun 06h57:43 40.7330 31.2200 288° West 418 774 38.000  Level FlightAware ADS-B
Sun 06h58:18 40.7540 31.1330 288° West 407 753 38.000  Level FlightAware ADS-B
Sun 06h59:08 40.7820 31.0150 287° West 403 747 38.000  Level FlightAware ADS-B
Sun 06h59:48 40.8050 30.9220 288° West 404 748 38.000  Level FlightAware ADS-B
Sun 07h00:33 40.8300 30.8140 287° West 412 763 38.000  Level FlightAware ADS-B
Sun 07h01:13 40.8530 30.7180 288° West 412 763 38.000  Level FlightAware ADS-B
Sun 07h01:58 40.8770 30.6040 286° West 409 758 38.000  Level FlightAware ADS-B
Sun 07h02:38 40.8940 30.5070 283° West 408 756 38.000  Level FlightAware ADS-B
Sun 07h03:18 40.9110 30.4110 283° West 411 761 38.000  Level FlightAware ADS-B
Sun 07h04:03 40.9310 30.2970 283° West 413 764 38.000  Level FlightAware ADS-B
Sun 07h04:43 40.9470 30.2060 283° West 415 769 38.000  Level FlightAware ADS-B
Sun 07h05:28 40.9680 30.0880 283° West 416 771 38.000  Level FlightAware ADS-B
Sun 07h06:08 40.9850 29.9890 283° West 416 771 38.000  Level FlightAware ADS-B
Sun 07h06:48 41.0020 29.8880 283° West 418 774 38.000  Level FlightAware ADS-B
Sun 07h07:33 41.0220 29.7740 283° West 423 784 38.000  Level FlightAware ADS-B
Sun 07h08:13 41.0390 29.6740 283° West 424 785 38.000  Level FlightAware ADS-B
Sun 07h08:58 41.0580 29.5600 282° West 424 785 38.000  Level FlightAware ADS-B
Sun 07h09:38 41.0750 29.4570 282° West 426 789 38.000  Level FlightAware ADS-B
Sun 07h10:18 41.0920 29.3530 282° West 429 795 38.000  Level FlightAware ADS-B
Sun 07h11:03 41.1110 29.2390 283° West 432 800 38.000  Level FlightAware ADS-B
Sun 07h11:43 41.1200 29.1400 277° West 424 785 38.000  Level FlightAware ADS-B
Sun 07h12:28 41.1160 29.0200 268° West 415 769 38.000  Level FlightAware ADS-B
Sun 07h13:08 41.1090 28.9310 264° West 418 774 38.000  Level FlightAware ADS-B
Sun 07h13:48 41.1000 28.8150 264° West 422 782 38.000  Level FlightAware ADS-B
Sun 07h14:33 41.0920 28.7010 265° West 423 784 38.000  Level FlightAware ADS-B
Sun 07h15:13 41.0840 28.6060 264° West 424 785 38.000  Level FlightAware ADS-B
Sun 07h15:58 41.0750 28.4790 265° West 424 785 38.000  Level FlightAware ADS-B
Sun 07h16:38 41.0670 28.3810 264° West 422 782 38.000  Level FlightAware ADS-B
Sun 07h17:23 41.0580 28.2610 264° West 421 779 38.000  Level FlightAware ADS-B
Sun 07h18:03 41.0500 28.1580 264° West 423 784 38.000  Level FlightAware ADS-B
Sun 07h18:43 41.0420 28.0550 264° West 425 787 38.000  Level FlightAware ADS-B
Sun 07h19:28 41.0320 27.9400 263° West 425 787 38.000  Level FlightAware ADS-B
Sun 07h20:08 41.0240 27.8320 264° West 428 793 38.000  Level FlightAware ADS-B
Sun 07h20:53 41.0140 27.7180 263° West 431 798 38.000  Level FlightAware ADS-B
Sun 07h21:33 41.0050 27.6120 264° West 434 803 38.000  Level FlightAware ADS-B
Sun 07h22:13 40.9960 27.5070 264° West 436 808 38.000  Level FlightAware ADS-B
Sun 07h22:58 40.9870 27.3940 264° West 435 806 38.000  Level FlightAware ADS-B
Sun 07h23:38 40.9770 27.2820 263° West 435 806 38.000  Level FlightAware ADS-B
Sun 07h24:23 40.9660 27.1620 263° West 439 813 38.000  Level FlightAware ADS-B
Sun 07h25:03 40.9570 27.0570 264° West 442 819 38.000  Level FlightAware ADS-B
Sun 07h25:43 40.9470 26.9480 263° West 442 819 38.000  Level FlightAware ADS-B
Sun 07h26:23 40.9390 26.8520 264° West 442 819 38.000  Level FlightAware ADS-B
Sun 07h26:58 40.9290 26.7430 263° West 445 824 38.000  Level FlightAware ADS-B
Sun 07h27:53 40.9160 26.6090 263° West 443 821 38.000  Level FlightAware ADS-B
Sun 07h28:23 40.9090 26.5290 263° West 443 821 38.000  Level FlightAware ADS-B
Sun 07h29:08 40.8990 26.4210 263° West 443 821 38.000  Level FlightAware ADS-B
Sun 07h29:58 40.8840 26.2670 263° West 443 821 38.000  Level FlightAware ADS-B
Sun 07h30:33 40.8800 26.1690 267° West 38.000  Level FlightAware ADS-B
Sun 07h31:33 40.8720 26.0090 266° West 38.000  Level FlightAware ADS-B
Sun 07h32:13 40.8660 25.9110 265° West 448 830 38.000  Level FlightAware ADS-B
Sun 07h32:53 40.8590 25.8190 264° West 448 830 38.000  Level FlightAware ADS-B
Sun 07h33:33 40.8530 25.6710 267° West 451 835 38.000  Level FlightAware ADS-B
Sun 07h34:18 40.8460 25.5640 265° West 451 835 38.000  Level FlightAware ADS-B
Sun 07h34:58 40.8390 25.4700 264° West 451 835 38.000  Level FlightAware ADS-B
Sun 07h35:48 40.8320 25.3530 266° West 451 835 38.000  Level FlightAware ADS-B
Sun 07h36:28 40.8260 25.2600 265° West 451 835 38.000  Level FlightAware ADS-B
Sun 07h37:08 40.8190 25.1670 264° West 451 835 38.000  Level FlightAware ADS-B
Sun 07h38:03 40.8080 24.9430 266° West 455 843 38.000  Level FlightAware ADS-B
Sun 07h38:43 40.8020 24.8490 265° West 455 843 38.000  Level FlightAware ADS-B
Sun 07h39:28 40.7930 24.7050 265° West 462 856 38.000  Level FlightAware ADS-B
Sun 07h40:13 40.7840 24.5830 264° West 463 858 38.000  Level FlightAware ADS-B
Sun 07h41:08 40.7740 24.4260 265° West 462 856 38.000  Level FlightAware ADS-B
Sun 07h41:48 40.7680 24.3310 265° West 462 856 38.000  Level FlightAware ADS-B
Sun 07h42:33 40.7570 24.1870 264° West 464 859 38.000  Level FlightAware ADS-B
Sun 07h43:08 40.7500 24.0930 264° West 464 859 38.000  Level FlightAware ADS-B
Sun 07h43:53 40.7410 23.9680 265° West 465 861 38.000  Level FlightAware ADS-B
Sun 07h44:38 40.7310 23.8320 265° West 463 858 38.000  Level FlightAware ADS-B
Sun 07h45:18 40.7230 23.7230 265° West 461 855 38.000  Level FlightAware ADS-B
Sun 07h46:03 40.7130 23.5930 264° West 461 855 38.000  Level FlightAware ADS-B
Sun 07h46:38 40.7060 23.4970 265° West 460 851 38.000  Level FlightAware ADS-B
Sun 07h47:28 40.6950 23.3580 264° West 458 848 38.000  Level FlightAware ADS-B
Sun 07h48:03 40.6870 23.2560 264° West 457 847 38.000  Level FlightAware ADS-B
Sun 07h48:48 40.6770 23.1290 264° West 458 848 38.000  Level FlightAware ADS-B
Sun 07h49:23 40.6700 23.0440 264° West 458 848 38.000  Level FlightAware ADS-B
Sun 07h50:13 40.6580 22.9010 264° West 458 848 38.000  Level FlightAware ADS-B
Sun 07h50:58 40.6480 22.7750 264° West 458 848 38.000  Level FlightAware ADS-B
Sun 07h51:38 40.6390 22.6670 264° West 459 850 38.000  Level FlightAware ADS-B
Sun 07h52:23 40.6280 22.5400 264° West 459 850 38.000  Level FlightAware ADS-B
Sun 07h53:03 40.6180 22.4280 263° West 459 850 38.000  Level FlightAware ADS-B
Sun 07h53:43 40.6090 22.3170 264° West 458 848 38.000  Level FlightAware ADS-B
Sun 07h54:28 40.5980 22.1940 263° West 456 845 38.000  Level FlightAware ADS-B
Sun 07h55:08 40.5880 22.0860 263° West 457 847 38.000  Level FlightAware ADS-B
Sun 07h55:48 40.5780 21.9750 263° West 459 850 38.000  Level FlightAware ADS-B
Sun 07h56:33 40.5670 21.8500 263° West 459 850 38.000  Level FlightAware ADS-B
Sun 07h57:13 40.5560 21.7380 263° West 460 851 38.000  Level FlightAware ADS-B
Sun 07h57:58 40.5450 21.6140 263° West 459 850 38.000  Level FlightAware ADS-B
Sun 07h58:38 40.5340 21.5050 262° West 458 848 38.000  Level FlightAware ADS-B
Sun 07h59:18 40.5240 21.3920 263° West 462 856 38.000  Level FlightAware ADS-B
Sun 08h00:03 40.5120 21.2680 263° West 463 858 38.000  Level FlightAware ADS-B
Sun 08h00:43 40.5010 21.1580 263° West 464 859 38.000  Level FlightAware ADS-B
Sun 08h01:28 40.4880 21.0280 263° West 464 859 38.000  Level FlightAware ADS-B
Sun 08h02:08 40.4840 20.9170 267° West 467 864 38.000  Level FlightAware ADS-B
Sun 08h02:53 40.4940 20.7900 276° West 469 869 38.000  Level FlightAware ADS-B
Sun 08h03:33 40.5110 20.6780 281° West 467 864 38.000  Level FlightAware ADS-B
Sun 08h04:08 40.5250 20.5820 281° West 469 869 38.000  Level FlightAware ADS-B
Sun 08h05:08 40.5450 20.4180 279° West 469 869 38.000  Level FlightAware ADS-B
Sun 08h05:43 40.5600 20.3120 281° West 468 867 38.000  Level FlightAware ADS-B
Sun 08h06:28 40.5720 20.2040 278° West 466 863 38.000  Level FlightAware ADS-B
Sun 08h07:28 40.5960 20.0320 280° West 38.000  Level FlightAware ADS-B
Sun 08h08:13 40.6130 19.8950 279° West 465 861 38.000  Level FlightAware ADS-B
Sun 08h08:53 40.6280 19.7800 280° West 466 863 38.000  Level FlightAware ADS-B
Sun 08h09:38 40.6440 19.6530 279° West 466 863 38.000  Level FlightAware ADS-B
Sun 08h10:13 40.6550 19.5580 279° West 462 856 38.000  Level FlightAware ADS-B
Sun 08h11:13 40.6760 19.3910 279° West 460 851 38.000  Level FlightAware ADS-B
Sun 08h11:58 40.6910 19.2650 279° West 460 851 38.000  Level FlightAware ADS-B
Sun 08h12:38 40.7040 19.1520 279° West 460 851 38.000  Level FlightAware ADS-B
Sun 08h13:23 40.7180 19.0340 279° West 461 855 38.000  Level FlightAware ADS-B
Sun 08h14:03 40.7320 18.9220 279° West 462 856 38.000  Level FlightAware ADS-B
Sun 08h14:43 40.7440 18.8130 278° West 463 858 38.000  Level FlightAware ADS-B
Sun 08h15:28 40.7600 18.6800 279° West 463 858 38.000  Level FlightAware ADS-B
Sun 08h16:08 40.7720 18.5690 278° West 462 856 38.000  Level FlightAware ADS-B
Sun 08h16:53 40.7860 18.4470 279° West 463 858 38.000  Level FlightAware ADS-B
Sun 08h17:33 40.7990 18.3340 279° West 464 859 38.000  Level FlightAware ADS-B
Sun 08h18:13 40.8110 18.2230 278° West 463 858 38.000  Level FlightAware ADS-B
Sun 08h18:58 40.8250 18.0960 278° West 461 855 38.000  Level FlightAware ADS-B
Sun 08h19:38 40.8380 17.9840 279° West 460 851 38.000  Level FlightAware ADS-B
Sun 08h20:23 40.8510 17.8610 278° West 460 851 38.000  Level FlightAware ADS-B
Sun 08h21:03 40.8630 17.7500 278° West 461 855 38.000  Level FlightAware ADS-B
Sun 08h21:43 40.8740 17.6400 278° West 461 855 38.000  Level FlightAware ADS-B
Sun 08h22:28 40.8880 17.5110 278° West 461 855 38.000  Level FlightAware ADS-B
Sun 08h23:08 40.9000 17.3990 278° West 461 855 38.000  Level FlightAware ADS-B
Sun 08h23:53 40.9120 17.2760 277° West 459 850 38.000  Level FlightAware ADS-B
Sun 08h24:33 40.9240 17.1660 278° West 458 848 38.000  Level FlightAware ADS-B
Sun 08h25:13 40.9340 17.0570 277° West 458 848 38.000  Level FlightAware ADS-B
Sun 08h25:58 40.9470 16.9280 278° West 459 850 38.000  Level FlightAware ADS-B
Sun 08h26:38 40.9580 16.8160 277° West 460 851 38.000  Level FlightAware ADS-B
Sun 08h27:23 40.9700 16.6950 278° West 459 850 38.000  Level FlightAware ADS-B
Sun 08h28:03 40.9810 16.5840 278° West 458 848 38.000  Level FlightAware ADS-B
Sun 08h28:43 40.9920 16.4720 277° West 458 848 38.000  Level FlightAware ADS-B
Sun 08h29:28 41.0040 16.3440 277° West 458 848 38.000  Level FlightAware ADS-B
Sun 08h30:08 41.0140 16.2340 277° West 459 850 38.000  Level FlightAware ADS-B
Sun 08h30:48 41.0240 16.1230 277° West 459 850 38.000  Level FlightAware ADS-B
Sun 08h31:33 41.0360 15.9990 277° West 460 851 38.000  Level FlightAware ADS-B
Sun 08h32:13 41.0460 15.8860 277° West 461 855 38.000  Level FlightAware ADS-B
Sun 08h32:58 41.0570 15.7570 276° West 462 856 38.000  Level FlightAware ADS-B
Sun 08h33:38 41.0670 15.6460 277° West 461 855 38.000  Level FlightAware ADS-B
Sun 08h34:18 41.0770 15.5340 277° West 459 850 38.000  Level FlightAware ADS-B
Sun 08h35:03 41.0880 15.4120 277° West 460 851 38.000 -424 Level FlightAware ADS-B
Sun 08h35:43 41.0990 15.3000 277° West 469 869 37.400 -1.694 Descending FlightAware ADS-B
Sun 08h36:28 41.1260 15.1700 285° West 477 884 35.600 -2.612 Descending FlightAware ADS-B
Sun 08h37:08 41.1480 15.0550 284° West 497 921 33.700 -2.824 Descending FlightAware ADS-B
Sun 08h37:53 41.1730 14.9240 284° West 502 930 31.600 -2.612 Descending FlightAware ADS-B
Sun 08h38:33 41.1960 14.8050 284° West 495 917 30.000 -2.025 Descending FlightAware ADS-B
Sun 08h39:13 41.2190 14.6880 285° West 477 884 28.900 -1.906 Descending FlightAware ADS-B
Sun 08h39:58 41.2420 14.5640 284° West 468 867 27.300 -2.118 Descending FlightAware ADS-B
Sun 08h40:38 41.2630 14.4550 284° West 463 858 25.900 -1.835 Descending FlightAware ADS-B
Sun 08h41:23 41.2860 14.3350 284° West 448 830 24.700 -1.575 Descending FlightAware ADS-B
Sun 08h41:58 41.3020 14.2450 283° West 437 810 23.800 -1.440 Descending FlightAware ADS-B
Sun 08h42:38 41.3180 14.1610 284° West 428 793 22.900 -1.482 Descending FlightAware ADS-B
Sun 08h43:23 41.3410 14.0380 284° West 423 784 21.700 -1.543 Descending FlightAware ADS-B
Sun 08h44:23 41.3660 13.8990 284° West 411 761 20.200 -1.560 Descending FlightAware ADS-B
Sun 08h45:03 41.3860 13.7940 284° West 406 752 19.100 -1.482 Descending FlightAware ADS-B
Sun 08h45:48 41.4050 13.6880 283° West 399 739 18.100 -1.482 Descending FlightAware ADS-B
Sun 08h46:28 41.4230 13.5870 283° West 395 732 17.000 -1.500 Descending FlightAware ADS-B
Sun 08h47:08 41.4370 13.5110 284° West 388 719 16.100 -1.650 Descending FlightAware ADS-B
Sun 08h47:48 41.4640 13.4080 289° West 376 697 14.800 -1.412 Descending FlightAware ADS-B
Sun 08h48:33 41.4950 13.3180 295° West 356 660 14.100 -847 Descending FlightAware ADS-B
Sun 08h49:13 41.5060 13.2310 280° West 332 615 13.600 -600 Descending FlightAware ADS-B
Sun 08h49:53 41.5060 13.1580 270° West 312 578 13.300 -565 Descending FlightAware ADS-B
Sun 08h50:38 41.5060 13.0750 270° West 293 542 12.800 -667 Descending FlightAware ADS-B
Sun 08h51:23 41.5060 12.9970 270° West 258 478 12.300 -565 Descending FlightAware ADS-B
Sun 08h52:03 41.5060 12.9380 270° West 231 428 12.000 -847 Descending FlightAware ADS-B
Sun 08h52:48 41.5050 12.8720 269° West 232 430 11.100 -1.020 Descending FlightAware ADS-B
Sun 08h53:43 41.5050 12.7990 270° West 223 414 10.300 -988 Descending FlightAware ADS-B
Sun 08h54:13 41.5040 12.7530 268° West 223 414 9.700 -1.200 Descending FlightAware ADS-B
Sun 08h54:38 41.5040 12.7210 270° West 224 415 9.200 -1.200 Descending FlightAware ADS-B
Sun 08h55:08 41.5040 12.6690 270° West 220 407 8.600 -1.015 Descending FlightAware ADS-B
Sun 08h55:43 41.5040 12.6430 270° West 220 407 8.100 -1.200 Descending FlightAware ADS-B
Sun 08h56:13 41.5030 12.5810 269° West 224 415 7.300 -1.200 Descending FlightAware ADS-B
Sun 08h57:08 41.5020 12.5050 269° West 216 401 6.400 -1.043 Descending FlightAware ADS-B
Sun 08h58:08 41.5090 12.4290 277° West 205 380 5.300 -971 Descending FlightAware ADS-B
Sun 08h58:53 41.5290 12.3810 299° West 197 365 4.700 -840 Descending FlightAware ADS-B
Sun 08h58:58 41.5310 12.3760 298° West 197 365 4.600 -618 Descending FlightAware ADS-B
Sun 09h01:00 41.7262 12.2868 341° North  Level Estimated
Sun 09h01:38 41.6460 12.2970 341° North 174 322 3.000  Level FlightAware ADS-B
Sun 09h02:48 41.6940 12.2770 343° North 155 286 2.400 -660 Descending FlightAware ADS-B
Sun 09h03:18 41.7140 12.2690 343° North 140 259 1.900 -960 Descending FlightAware ADS-B
Sun 09h03:38 41.7260 12.2640 343° North 124 230 1.600 -764 Descending FlightAware ADS-B
Sun 09h04:13 41.7450 12.2560 343° North 122 225 1.200 -738 Descending FlightAware ADS-B
Sun 09h04:43 41.7630 12.2480 342° North 123 229 800 -545 Descending FlightAware ADS-B
Sun 09h05:08 41.7770 12.2420 342° North 123 229 700 -240 Descending FlightAware ADS-B

Login

Don't have an account? Register now (free) for customized features, flight alerts, and more!